sensor_id;sensor_type;location;lat;lon;timestamp;pressure;altitude;pressure_sealevel;temperature;humidity
69848;BME280;57143;55.940;37.496;2022-08-20T00:02:14;100419.03;;;18.23;75.45
69848;BME280;57143;55.940;37.496;2022-08-20T00:04:41;100411.63;;;18.23;76.15
69848;BME280;57143;55.940;37.496;2022-08-20T00:07:08;100405.41;;;18.11;76.66
69848;BME280;57143;55.940;37.496;2022-08-20T00:09:37;100390.94;;;17.99;77.13
69848;BME280;57143;55.940;37.496;2022-08-20T00:12:04;100413.72;;;18.16;77.94
69848;BME280;57143;55.940;37.496;2022-08-20T00:14:32;100402.25;;;18.03;78.32
69848;BME280;57143;55.940;37.496;2022-08-20T00:16:59;100408.41;;;18.10;78.47
69848;BME280;57143;55.940;37.496;2022-08-20T00:19:26;100408.97;;;18.12;78.85
69848;BME280;57143;55.940;37.496;2022-08-20T00:21:54;100413.53;;;18.06;79.13
69848;BME280;57143;55.940;37.496;2022-08-20T00:24:21;100409.53;;;17.97;79.73
69848;BME280;57143;55.940;37.496;2022-08-20T00:26:49;100420.84;;;18.01;80.18
69848;BME280;57143;55.940;37.496;2022-08-20T00:29:16;100409.22;;;17.94;80.87
69848;BME280;57143;55.940;37.496;2022-08-20T00:31:43;100414.44;;;17.95;81.20
69848;BME280;57143;55.940;37.496;2022-08-20T00:34:10;100413.03;;;17.93;82.10
69848;BME280;57143;55.940;37.496;2022-08-20T00:36:37;100416.25;;;17.90;82.21
69848;BME280;57143;55.940;37.496;2022-08-20T00:39:04;100418.41;;;17.88;83.18
69848;BME280;57143;55.940;37.496;2022-08-20T00:41:31;100414.03;;;17.87;83.92
69848;BME280;57143;55.940;37.496;2022-08-20T00:44:09;100413.09;;;17.81;84.99
69848;BME280;57143;55.940;37.496;2022-08-20T00:46:37;100417.97;;;17.79;85.05
69848;BME280;57143;55.940;37.496;2022-08-20T00:49:06;100387.88;;;17.51;86.42
69848;BME280;57143;55.940;37.496;2022-08-20T00:51:36;100390.13;;;17.54;87.13
69848;BME280;57143;55.940;37.496;2022-08-20T00:54:08;100415.91;;;17.70;87.48
69848;BME280;57143;55.940;37.496;2022-08-20T00:56:38;100422.13;;;17.65;88.34
69848;BME280;57143;55.940;37.496;2022-08-20T00:59:08;100362.44;;;17.27;88.68
69848;BME280;57143;55.940;37.496;2022-08-20T01:01:39;100418.38;;;17.55;89.54
69848;BME280;57143;55.940;37.496;2022-08-20T01:04:08;100418.38;;;17.55;90.23
69848;BME280;57143;55.940;37.496;2022-08-20T01:06:35;100418.63;;;17.53;90.66
69848;BME280;57143;55.940;37.496;2022-08-20T01:09:03;100421.03;;;17.50;91.56
69848;BME280;57143;55.940;37.496;2022-08-20T01:11:30;100421.69;;;17.45;92.36
69848;BME280;57143;55.940;37.496;2022-08-20T01:13:59;100403.97;;;17.36;92.53
69848;BME280;57143;55.940;37.496;2022-08-20T01:16:39;100390.91;;;17.26;93.11
69848;BME280;57143;55.940;37.496;2022-08-20T01:19:07;100421.34;;;17.42;93.66
69848;BME280;57143;55.940;37.496;2022-08-20T01:21:36;100416.13;;;17.40;94.57
69848;BME280;57143;55.940;37.496;2022-08-20T01:24:06;100417.47;;;17.38;94.13
69848;BME280;57143;55.940;37.496;2022-08-20T01:26:41;100416.03;;;17.35;94.67
69848;BME280;57143;55.940;37.496;2022-08-20T01:29:13;100409.59;;;17.29;94.95
69848;BME280;57143;55.940;37.496;2022-08-20T01:31:41;100424.00;;;17.37;95.23
69848;BME280;57143;55.940;37.496;2022-08-20T01:34:14;100391.78;;;17.15;95.34
69848;BME280;57143;55.940;37.496;2022-08-20T01:36:45;100429.97;;;17.33;95.74
69848;BME280;57143;55.940;37.496;2022-08-20T01:39:14;100434.88;;;17.31;96.24
69848;BME280;57143;55.940;37.496;2022-08-20T01:41:56;100393.97;;;17.02;95.96
69848;BME280;57143;55.940;37.496;2022-08-20T01:44:26;100437.50;;;17.26;96.54
69848;BME280;57143;55.940;37.496;2022-08-20T01:46:54;100437.50;;;17.26;96.77
69848;BME280;57143;55.940;37.496;2022-08-20T01:49:24;100448.97;;;17.23;97.14
69848;BME280;57143;55.940;37.496;2022-08-20T01:51:52;100436.81;;;17.19;97.63
69848;BME280;57143;55.940;37.496;2022-08-20T01:54:20;100433.22;;;17.19;97.61
69848;BME280;57143;55.940;37.496;2022-08-20T01:56:55;100418.16;;;17.05;97.64
69848;BME280;57143;55.940;37.496;2022-08-20T01:59:22;100447.41;;;17.16;97.81
69848;BME280;57143;55.940;37.496;2022-08-20T02:01:50;100440.75;;;17.12;98.17
69848;BME280;57143;55.940;37.496;2022-08-20T02:04:18;100434.34;;;17.06;98.17
69848;BME280;57143;55.940;37.496;2022-08-20T02:06:48;100439.59;;;17.08;98.15
69848;BME280;57143;55.940;37.496;2022-08-20T02:09:15;100442.81;;;17.05;98.13
69848;BME280;57143;55.940;37.496;2022-08-20T02:11:42;100446.59;;;17.04;98.31
69848;BME280;57143;55.940;37.496;2022-08-20T02:14:12;100435.66;;;17.04;98.04
69848;BME280;57143;55.940;37.496;2022-08-20T02:16:42;100442.47;;;17.01;97.96
69848;BME280;57143;55.940;37.496;2022-08-20T02:19:14;100431.16;;;16.98;98.14
69848;BME280;57143;55.940;37.496;2022-08-20T02:21:44;100401.91;;;16.75;98.19
69848;BME280;57143;55.940;37.496;2022-08-20T02:24:12;100443.88;;;17.04;97.95
69848;BME280;57143;55.940;37.496;2022-08-20T02:26:40;100436.50;;;17.04;97.75
69848;BME280;57143;55.940;37.496;2022-08-20T02:29:10;100444.47;;;17.06;97.56
69848;BME280;57143;55.940;37.496;2022-08-20T02:31:40;100438.34;;;17.27;96.85
69848;BME280;57143;55.940;37.496;2022-08-20T02:34:12;100418.66;;;17.30;94.44
69848;BME280;57143;55.940;37.496;2022-08-20T02:36:39;100442.16;;;17.66;92.70
69848;BME280;57143;55.940;37.496;2022-08-20T02:39:10;100441.44;;;17.70;92.18
69848;BME280;57143;55.940;37.496;2022-08-20T02:41:38;100449.59;;;17.54;92.85
69848;BME280;57143;55.940;37.496;2022-08-20T02:44:06;100444.00;;;17.49;93.34
69848;BME280;57143;55.940;37.496;2022-08-20T02:46:33;100423.13;;;17.76;91.67
69848;BME280;57143;55.940;37.496;2022-08-20T02:49:02;100421.44;;;18.19;88.18
69848;BME280;57143;55.940;37.496;2022-08-20T02:51:29;100449.44;;;18.88;85.02
69848;BME280;57143;55.940;37.496;2022-08-20T02:53:56;100448.75;;;18.97;83.03
69848;BME280;57143;55.940;37.496;2022-08-20T02:56:23;100437.25;;;19.22;80.59
69848;BME280;57143;55.940;37.496;2022-08-20T02:58:50;100454.41;;;19.29;79.86
69848;BME280;57143;55.940;37.496;2022-08-20T03:01:17;100452.75;;;19.49;78.76
69848;BME280;57143;55.940;37.496;2022-08-20T03:03:44;100454.00;;;19.64;78.25
69848;BME280;57143;55.940;37.496;2022-08-20T03:06:13;100450.94;;;19.87;76.13
69848;BME280;57143;55.940;37.496;2022-08-20T03:08:41;100465.03;;;20.17;74.74
69848;BME280;57143;55.940;37.496;2022-08-20T03:11:08;100470.22;;;20.45;73.01
69848;BME280;57143;55.940;37.496;2022-08-20T03:13:35;100469.03;;;20.67;71.33
69848;BME280;57143;55.940;37.496;2022-08-20T03:16:03;100470.66;;;20.63;72.21
69848;BME280;57143;55.940;37.496;2022-08-20T03:18:34;100459.63;;;20.27;73.23
69848;BME280;57143;55.940;37.496;2022-08-20T03:21:03;100473.97;;;21.02;71.29
69848;BME280;57143;55.940;37.496;2022-08-20T03:23:33;100472.66;;;21.15;69.34
69848;BME280;57143;55.940;37.496;2022-08-20T03:26:08;100475.59;;;21.45;68.79
69848;BME280;57143;55.940;37.496;2022-08-20T03:28:35;100468.94;;;21.41;67.82
69848;BME280;57143;55.940;37.496;2022-08-20T03:31:03;100469.53;;;21.53;66.57
69848;BME280;57143;55.940;37.496;2022-08-20T03:33:30;100476.19;;;21.57;66.17
69848;BME280;57143;55.940;37.496;2022-08-20T03:35:57;100475.94;;;21.73;65.70
69848;BME280;57143;55.940;37.496;2022-08-20T03:38:25;100480.81;;;21.46;66.28
69848;BME280;57143;55.940;37.496;2022-08-20T03:40:54;100466.41;;;21.29;67.05
69848;BME280;57143;55.940;37.496;2022-08-20T03:43:20;100479.31;;;21.19;68.75
69848;BME280;57143;55.940;37.496;2022-08-20T03:45:48;100476.69;;;21.54;67.22
69848;BME280;57143;55.940;37.496;2022-08-20T03:48:18;100476.00;;;21.17;69.42
69848;BME280;57143;55.940;37.496;2022-08-20T03:50:46;100463.31;;;21.83;65.86
69848;BME280;57143;55.940;37.496;2022-08-20T03:53:14;100469.97;;;22.07;64.75
69848;BME280;57143;55.940;37.496;2022-08-20T03:55:43;100472.19;;;22.10;63.67
69848;BME280;57143;55.940;37.496;2022-08-20T03:58:13;100446.75;;;21.77;65.29
69848;BME280;57143;55.940;37.496;2022-08-20T04:00:46;100473.88;;;22.36;63.31
69848;BME280;57143;55.940;37.496;2022-08-20T04:03:14;100458.09;;;21.96;63.78
69848;BME280;57143;55.940;37.496;2022-08-20T04:05:42;100470.22;;;21.90;64.07
69848;BME280;57143;55.940;37.496;2022-08-20T04:08:11;100463.06;;;22.09;63.41
69848;BME280;57143;55.940;37.496;2022-08-20T04:10:39;100487.69;;;22.51;61.82
69848;BME280;57143;55.940;37.496;2022-08-20T04:13:06;100486.59;;;22.82;60.55
69848;BME280;57143;55.940;37.496;2022-08-20T04:15:35;100481.63;;;22.79;60.47
69848;BME280;57143;55.940;37.496;2022-08-20T04:18:04;100478.31;;;22.67;60.69
69848;BME280;57143;55.940;37.496;2022-08-20T04:20:33;100459.50;;;22.74;59.62
69848;BME280;57143;55.940;37.496;2022-08-20T04:23:01;100457.50;;;23.10;57.56
69848;BME280;57143;55.940;37.496;2022-08-20T04:25:29;100476.38;;;23.66;55.04
69848;BME280;57143;55.940;37.496;2022-08-20T04:27:57;100469.31;;;23.35;55.75
69848;BME280;57143;55.940;37.496;2022-08-20T04:30:25;100475.63;;;23.51;54.11
69848;BME280;57143;55.940;37.496;2022-08-20T04:32:54;100469.03;;;23.47;52.75
69848;BME280;57143;55.940;37.496;2022-08-20T04:35:22;100464.47;;;24.15;49.70
69848;BME280;57143;55.940;37.496;2022-08-20T04:37:57;100456.09;;;23.81;49.71
69848;BME280;57143;55.940;37.496;2022-08-20T04:40:24;100466.91;;;24.60;47.78
69848;BME280;57143;55.940;37.496;2022-08-20T04:43:09;100459.47;;;24.84;45.49
69848;BME280;57143;55.940;37.496;2022-08-20T04:45:36;100459.03;;;25.24;44.75
69848;BME280;57143;55.940;37.496;2022-08-20T04:48:06;100456.88;;;24.64;45.48
69848;BME280;57143;55.940;37.496;2022-08-20T04:50:35;100452.25;;;24.21;47.53
69848;BME280;57143;55.940;37.496;2022-08-20T04:53:04;100453.56;;;24.33;46.41
69848;BME280;57143;55.940;37.496;2022-08-20T04:55:31;100458.63;;;23.77;48.25
69848;BME280;57143;55.940;37.496;2022-08-20T04:58:02;100453.41;;;22.87;50.54
69848;BME280;57143;55.940;37.496;2022-08-20T05:00:29;100467.75;;;22.94;50.26
69848;BME280;57143;55.940;37.496;2022-08-20T05:02:56;100457.75;;;23.13;50.73
69848;BME280;57143;55.940;37.496;2022-08-20T05:05:24;100443.25;;;23.51;48.96
69848;BME280;57143;55.940;37.496;2022-08-20T05:07:52;100449.56;;;24.11;47.19
69848;BME280;57143;55.940;37.496;2022-08-20T05:10:20;100452.47;;;23.22;47.45
69848;BME280;57143;55.940;37.496;2022-08-20T05:12:48;100435.44;;;24.12;45.16
69848;BME280;57143;55.940;37.496;2022-08-20T05:15:15;100454.66;;;24.66;43.44
69848;BME280;57143;55.940;37.496;2022-08-20T05:17:42;100457.19;;;24.91;42.31
69848;BME280;57143;55.940;37.496;2022-08-20T05:20:12;100449.91;;;24.66;41.65
69848;BME280;57143;55.940;37.496;2022-08-20T05:22:43;100454.19;;;24.87;41.85
69848;BME280;57143;55.940;37.496;2022-08-20T05:25:10;100456.75;;;25.31;40.74
69848;BME280;57143;55.940;37.496;2022-08-20T05:27:37;100459.19;;;25.38;39.87
69848;BME280;57143;55.940;37.496;2022-08-20T05:30:08;100466.78;;;25.51;39.89
69848;BME280;57143;55.940;37.496;2022-08-20T05:32:36;100464.22;;;25.54;39.73
69848;BME280;57143;55.940;37.496;2022-08-20T05:35:05;100462.97;;;25.18;40.81
69848;BME280;57143;55.940;37.496;2022-08-20T05:37:33;100458.44;;;25.51;39.67
69848;BME280;57143;55.940;37.496;2022-08-20T05:40:07;100452.41;;;25.49;39.17
69848;BME280;57143;55.940;37.496;2022-08-20T05:42:34;100456.16;;;24.82;41.25
69848;BME280;57143;55.940;37.496;2022-08-20T05:45:02;100461.09;;;23.79;43.80
69848;BME280;57143;55.940;37.496;2022-08-20T05:47:29;100468.22;;;23.21;46.33
69848;BME280;57143;55.940;37.496;2022-08-20T05:49:56;100482.72;;;22.38;49.54
69848;BME280;57143;55.940;37.496;2022-08-20T05:52:23;100473.31;;;22.49;50.35
69848;BME280;57143;55.940;37.496;2022-08-20T05:54:50;100473.88;;;22.56;50.15
69848;BME280;57143;55.940;37.496;2022-08-20T05:57:19;100464.19;;;22.33;50.82
69848;BME280;57143;55.940;37.496;2022-08-20T05:59:46;100472.78;;;22.52;50.38
69848;BME280;57143;55.940;37.496;2022-08-20T06:02:13;100464.47;;;22.52;51.34
69848;BME280;57143;55.940;37.496;2022-08-20T06:04:57;100465.31;;;22.32;51.11
69848;BME280;57143;55.940;37.496;2022-08-20T06:07:25;100453.41;;;22.32;50.94
69848;BME280;57143;55.940;37.496;2022-08-20T06:09:52;100468.06;;;22.47;50.42
69848;BME280;57143;55.940;37.496;2022-08-20T06:12:20;100475.22;;;22.38;50.52
69848;BME280;57143;55.940;37.496;2022-08-20T06:14:47;100475.75;;;23.06;48.66
69848;BME280;57143;55.940;37.496;2022-08-20T06:17:17;100479.28;;;23.36;47.36
69848;BME280;57143;55.940;37.496;2022-08-20T06:19:45;100453.59;;;23.84;43.97
69848;BME280;57143;55.940;37.496;2022-08-20T06:22:13;100466.03;;;23.28;45.40
69848;BME280;57143;55.940;37.496;2022-08-20T06:24:40;100476.84;;;23.15;46.57
69848;BME280;57143;55.940;37.496;2022-08-20T06:27:07;100480.81;;;22.58;47.17
69848;BME280;57143;55.940;37.496;2022-08-20T06:29:36;100476.06;;;22.14;49.62
69848;BME280;57143;55.940;37.496;2022-08-20T06:32:06;100480.44;;;21.85;51.57
69848;BME280;57143;55.940;37.496;2022-08-20T06:34:33;100474.63;;;21.81;51.32
69848;BME280;57143;55.940;37.496;2022-08-20T06:37:00;100485.03;;;21.64;53.38
69848;BME280;57143;55.940;37.496;2022-08-20T06:39:27;100481.94;;;21.55;55.20
69848;BME280;57143;55.940;37.496;2022-08-20T06:41:55;100488.25;;;21.41;55.33
69848;BME280;57143;55.940;37.496;2022-08-20T06:44:23;100464.28;;;21.46;55.53
69848;BME280;57143;55.940;37.496;2022-08-20T06:46:51;100475.31;;;21.51;54.67
69848;BME280;57143;55.940;37.496;2022-08-20T06:49:21;100486.06;;;21.48;53.31
69848;BME280;57143;55.940;37.496;2022-08-20T06:51:48;100488.56;;;21.54;53.42
69848;BME280;57143;55.940;37.496;2022-08-20T06:54:15;100472.28;;;21.48;53.51
69848;BME280;57143;55.940;37.496;2022-08-20T06:56:42;100469.78;;;21.46;53.09
69848;BME280;57143;55.940;37.496;2022-08-20T06:59:09;100467.03;;;21.46;53.70
69848;BME280;57143;55.940;37.496;2022-08-20T07:01:36;100466.47;;;21.49;54.37
69848;BME280;57143;55.940;37.496;2022-08-20T07:04:05;100462.09;;;21.58;55.07
69848;BME280;57143;55.940;37.496;2022-08-20T07:06:32;100478.09;;;21.56;53.43
69848;BME280;57143;55.940;37.496;2022-08-20T07:09:00;100465.97;;;21.67;53.45
69848;BME280;57143;55.940;37.496;2022-08-20T07:11:27;100471.75;;;21.56;54.39
69848;BME280;57143;55.940;37.496;2022-08-20T07:13:54;100464.56;;;21.50;53.45
69848;BME280;57143;55.940;37.496;2022-08-20T07:16:22;100459.63;;;21.62;51.82
69848;BME280;57143;55.940;37.496;2022-08-20T07:18:49;100465.94;;;21.52;50.11
69848;BME280;57143;55.940;37.496;2022-08-20T07:21:18;100468.94;;;21.41;49.04
69848;BME280;57143;55.940;37.496;2022-08-20T07:23:45;100448.31;;;21.58;48.63
69848;BME280;57143;55.940;37.496;2022-08-20T07:26:13;100422.66;;;21.73;47.77
69848;BME280;57143;55.940;37.496;2022-08-20T07:28:40;100446.25;;;22.21;46.61
69848;BME280;57143;55.940;37.496;2022-08-20T07:31:07;100451.22;;;22.34;46.86
69848;BME280;57143;55.940;37.496;2022-08-20T07:33:52;100450.38;;;22.38;46.99
69848;BME280;57143;55.940;37.496;2022-08-20T07:36:20;100448.72;;;22.42;46.80
69848;BME280;57143;55.940;37.496;2022-08-20T07:38:47;100438.75;;;22.86;44.20
69848;BME280;57143;55.940;37.496;2022-08-20T07:41:15;100460.06;;;22.71;44.46
69848;BME280;57143;55.940;37.496;2022-08-20T07:43:43;100440.97;;;22.74;44.46
69848;BME280;57143;55.940;37.496;2022-08-20T07:46:11;100424.16;;;22.26;44.74
69848;BME280;57143;55.940;37.496;2022-08-20T07:48:40;100444.00;;;22.08;46.06
69848;BME280;57143;55.940;37.496;2022-08-20T07:51:11;100442.94;;;22.24;46.24
69848;BME280;57143;55.940;37.496;2022-08-20T07:53:40;100444.31;;;22.41;46.52
69848;BME280;57143;55.940;37.496;2022-08-20T07:56:09;100433.53;;;22.65;45.23
69848;BME280;57143;55.940;37.496;2022-08-20T07:58:38;100437.94;;;22.81;44.48
69848;BME280;57143;55.940;37.496;2022-08-20T08:01:07;100457.81;;;22.78;44.33
69848;BME280;57143;55.940;37.496;2022-08-20T08:03:35;100454.28;;;22.67;43.64
69848;BME280;57143;55.940;37.496;2022-08-20T08:06:03;100449.53;;;22.18;44.75
69848;BME280;57143;55.940;37.496;2022-08-20T08:08:31;100444.72;;;21.68;47.49
69848;BME280;57143;55.940;37.496;2022-08-20T08:11:02;100417.66;;;21.45;48.37
69848;BME280;57143;55.940;37.496;2022-08-20T08:13:33;100441.66;;;21.54;48.65
69848;BME280;57143;55.940;37.496;2022-08-20T08:16:04;100447.03;;;21.81;48.32
69848;BME280;57143;55.940;37.496;2022-08-20T08:18:36;100436.84;;;21.97;47.22
69848;BME280;57143;55.940;37.496;2022-08-20T08:21:06;100447.31;;;21.95;46.85
69848;BME280;57143;55.940;37.496;2022-08-20T08:23:34;100450.94;;;22.15;46.54
69848;BME280;57143;55.940;37.496;2022-08-20T08:26:02;100445.41;;;22.40;45.36
69848;BME280;57143;55.940;37.496;2022-08-20T08:28:29;100439.88;;;22.45;45.30
69848;BME280;57143;55.940;37.496;2022-08-20T08:30:57;100446.53;;;22.64;44.82
69848;BME280;57143;55.940;37.496;2022-08-20T08:33:26;100442.94;;;22.29;45.53
69848;BME280;57143;55.940;37.496;2022-08-20T08:35:53;100429.13;;;22.24;45.58
69848;BME280;57143;55.940;37.496;2022-08-20T08:38:21;100437.38;;;21.99;45.14
69848;BME280;57143;55.940;37.496;2022-08-20T08:40:49;100432.16;;;22.12;45.01
69848;BME280;57143;55.940;37.496;2022-08-20T08:43:21;100444.00;;;21.98;44.73
69848;BME280;57143;55.940;37.496;2022-08-20T08:45:54;100421.94;;;22.33;44.89
69848;BME280;57143;55.940;37.496;2022-08-20T08:48:29;100437.13;;;22.30;45.42
69848;BME280;57143;55.940;37.496;2022-08-20T08:50:58;100432.69;;;22.49;44.29
69848;BME280;57143;55.940;37.496;2022-08-20T08:53:30;100381.59;;;22.32;43.43
69848;BME280;57143;55.940;37.496;2022-08-20T08:55:58;100437.69;;;22.72;42.82
69848;BME280;57143;55.940;37.496;2022-08-20T08:58:27;100431.91;;;22.59;41.92
69848;BME280;57143;55.940;37.496;2022-08-20T09:00:54;100438.50;;;22.53;41.75
69848;BME280;57143;55.940;37.496;2022-08-20T09:03:25;100428.84;;;22.70;41.15
69848;BME280;57143;55.940;37.496;2022-08-20T09:05:56;100414.72;;;22.47;40.77
69848;BME280;57143;55.940;37.496;2022-08-20T09:08:27;100398.72;;;22.44;41.00
69848;BME280;57143;55.940;37.496;2022-08-20T09:11:00;100423.00;;;22.47;41.25
69848;BME280;57143;55.940;37.496;2022-08-20T09:13:30;100440.16;;;22.44;41.60
69848;BME280;57143;55.940;37.496;2022-08-20T09:15:57;100438.50;;;22.38;41.72
69848;BME280;57143;55.940;37.496;2022-08-20T09:18:24;100442.94;;;22.29;41.76
69848;BME280;57143;55.940;37.496;2022-08-20T09:20:51;100442.09;;;22.13;41.38
69848;BME280;57143;55.940;37.496;2022-08-20T09:23:18;100437.69;;;22.12;41.83
69848;BME280;57143;55.940;37.496;2022-08-20T09:25:45;100454.50;;;22.06;41.79
69848;BME280;57143;55.940;37.496;2022-08-20T09:28:12;100435.72;;;22.03;41.34
69848;BME280;57143;55.940;37.496;2022-08-20T09:30:41;100432.97;;;21.93;41.69
69848;BME280;57143;55.940;37.496;2022-08-20T09:33:08;100441.25;;;22.03;41.75
69848;BME280;57143;55.940;37.496;2022-08-20T09:35:35;100450.38;;;22.03;41.84
69848;BME280;57143;55.940;37.496;2022-08-20T09:38:02;100450.66;;;22.02;41.80
69848;BME280;57143;55.940;37.496;2022-08-20T09:40:29;100439.03;;;21.95;41.65
69848;BME280;57143;55.940;37.496;2022-08-20T09:42:56;100449.25;;;21.89;41.93
69848;BME280;57143;55.940;37.496;2022-08-20T09:45:23;100462.91;;;21.59;42.38
69848;BME280;57143;55.940;37.496;2022-08-20T09:47:52;100470.88;;;21.45;43.59
69848;BME280;57143;55.940;37.496;2022-08-20T09:50:18;100470.53;;;21.27;44.13
69848;BME280;57143;55.940;37.496;2022-08-20T09:52:48;100458.03;;;21.14;45.95
69848;BME280;57143;55.940;37.496;2022-08-20T09:55:19;100464.13;;;21.16;46.98
69848;BME280;57143;55.940;37.496;2022-08-20T09:57:47;100467.19;;;21.20;46.97
69848;BME280;57143;55.940;37.496;2022-08-20T10:00:16;100443.25;;;20.89;47.01
69848;BME280;57143;55.940;37.496;2022-08-20T10:02:43;100478.63;;;20.97;48.14
69848;BME280;57143;55.940;37.496;2022-08-20T10:05:12;100478.25;;;20.88;48.24
69848;BME280;57143;55.940;37.496;2022-08-20T10:07:39;100481.53;;;20.85;49.76
69848;BME280;57143;55.940;37.496;2022-08-20T10:10:09;100465.75;;;20.71;49.85
69848;BME280;57143;55.940;37.496;2022-08-20T10:12:37;100480.94;;;20.78;51.38
69848;BME280;57143;55.940;37.496;2022-08-20T10:15:07;100463.16;;;20.59;52.74
69848;BME280;57143;55.940;37.496;2022-08-20T10:17:36;100475.66;;;20.35;52.26
69848;BME280;57143;55.940;37.496;2022-08-20T10:20:04;100476.44;;;20.30;53.85
69848;BME280;57143;55.940;37.496;2022-08-20T10:22:33;100446.50;;;20.12;54.66
69848;BME280;57143;55.940;37.496;2022-08-20T10:25:00;100462.34;;;20.22;56.11
69848;BME280;57143;55.940;37.496;2022-08-20T10:27:27;100462.91;;;20.24;58.70
69848;BME280;57143;55.940;37.496;2022-08-20T10:29:54;100465.84;;;20.17;59.67
69848;BME280;57143;55.940;37.496;2022-08-20T10:32:21;100462.41;;;20.05;63.02
69848;BME280;57143;55.940;37.496;2022-08-20T10:34:48;100455.69;;;19.91;60.88
69848;BME280;57143;55.940;37.496;2022-08-20T10:37:17;100463.78;;;20.03;62.88
69848;BME280;57143;55.940;37.496;2022-08-20T10:39:46;100460.13;;;19.97;63.86
69848;BME280;57143;55.940;37.496;2022-08-20T10:42:13;100433.09;;;19.89;63.91
69848;BME280;57143;55.940;37.496;2022-08-20T10:44:42;100459.06;;;19.98;65.30
69848;BME280;57143;55.940;37.496;2022-08-20T10:47:15;100466.22;;;19.99;66.64
69848;BME280;57143;55.940;37.496;2022-08-20T10:49:43;100463.69;;;19.93;70.69
69848;BME280;57143;55.940;37.496;2022-08-20T10:52:10;100463.00;;;19.81;71.95
69848;BME280;57143;55.940;37.496;2022-08-20T10:54:38;100461.47;;;19.68;74.52
69848;BME280;57143;55.940;37.496;2022-08-20T10:57:11;100449.75;;;19.51;78.67
69848;BME280;57143;55.940;37.496;2022-08-20T10:59:39;100468.16;;;19.50;78.89
69848;BME280;57143;55.940;37.496;2022-08-20T11:02:07;100460.38;;;19.42;80.57
69848;BME280;57143;55.940;37.496;2022-08-20T11:04:34;100462.47;;;19.35;83.50
69848;BME280;57143;55.940;37.496;2022-08-20T11:07:16;100475.22;;;19.25;83.64
69848;BME280;57143;55.940;37.496;2022-08-20T11:09:45;100446.13;;;19.07;84.87
69848;BME280;57143;55.940;37.496;2022-08-20T11:12:14;100466.91;;;19.20;85.23
69848;BME280;57143;55.940;37.496;2022-08-20T11:14:41;100455.84;;;19.15;87.19
69848;BME280;57143;55.940;37.496;2022-08-20T11:17:08;100456.91;;;19.14;88.44
69848;BME280;57143;55.940;37.496;2022-08-20T11:19:40;100455.28;;;19.13;91.76
69848;BME280;57143;55.940;37.496;2022-08-20T11:22:08;100455.22;;;19.08;93.05
69848;BME280;57143;55.940;37.496;2022-08-20T11:24:36;100454.81;;;18.99;94.07
69848;BME280;57143;55.940;37.496;2022-08-20T11:27:04;100452.53;;;18.91;95.45
69848;BME280;57143;55.940;37.496;2022-08-20T11:29:33;100455.50;;;18.90;91.80
69848;BME280;57143;55.940;37.496;2022-08-20T11:32:00;100462.41;;;18.92;95.66
69848;BME280;57143;55.940;37.496;2022-08-20T11:34:29;100452.69;;;18.85;95.36
69848;BME280;57143;55.940;37.496;2022-08-20T11:36:56;100455.56;;;18.95;96.83
69848;BME280;57143;55.940;37.496;2022-08-20T11:39:24;100440.81;;;18.79;100.00
69848;BME280;57143;55.940;37.496;2022-08-20T11:41:51;100435.59;;;18.99;99.43
69848;BME280;57143;55.940;37.496;2022-08-20T11:44:18;100429.06;;;19.05;94.15
69848;BME280;57143;55.940;37.496;2022-08-20T11:46:47;100433.53;;;19.11;96.50
69848;BME280;57143;55.940;37.496;2022-08-20T11:49:14;100426.38;;;19.10;92.37
69848;BME280;57143;55.940;37.496;2022-08-20T11:51:41;100396.59;;;19.02;97.32
69848;BME280;57143;55.940;37.496;2022-08-20T11:54:08;100395.75;;;19.02;97.70
69848;BME280;57143;55.940;37.496;2022-08-20T11:56:35;100386.44;;;19.03;98.80
69848;BME280;57143;55.940;37.496;2022-08-20T11:59:02;100406.59;;;19.30;96.79
69848;BME280;57143;55.940;37.496;2022-08-20T12:01:29;100412.72;;;19.37;94.69
69848;BME280;57143;55.940;37.496;2022-08-20T12:03:58;100308.88;;;18.74;91.77
69848;BME280;57143;55.940;37.496;2022-08-20T12:06:25;100401.19;;;19.40;92.63
69848;BME280;57143;55.940;37.496;2022-08-20T12:08:52;100391.66;;;19.26;93.11
69848;BME280;57143;55.940;37.496;2022-08-20T12:11:19;100403.50;;;19.48;91.14
69848;BME280;57143;55.940;37.496;2022-08-20T12:13:46;100383.38;;;19.42;90.08
69848;BME280;57143;55.940;37.496;2022-08-20T12:16:14;100392.00;;;19.51;85.08
69848;BME280;57143;55.940;37.496;2022-08-20T12:18:40;100368.22;;;19.40;84.43
69848;BME280;57143;55.940;37.496;2022-08-20T12:21:09;100387.16;;;19.63;83.16
69848;BME280;57143;55.940;37.496;2022-08-20T12:23:36;100386.69;;;19.71;81.73
69848;BME280;57143;55.940;37.496;2022-08-20T12:26:03;100391.88;;;19.68;79.16
69848;BME280;57143;55.940;37.496;2022-08-20T12:28:31;100384.47;;;19.68;78.51
69848;BME280;57143;55.940;37.496;2022-08-20T12:31:00;100384.47;;;19.68;74.31
69848;BME280;57143;55.940;37.496;2022-08-20T12:33:27;100387.53;;;19.72;74.96
69848;BME280;57143;55.940;37.496;2022-08-20T12:35:55;100377.31;;;19.67;73.89
69848;BME280;57143;55.940;37.496;2022-08-20T12:38:24;100383.31;;;19.64;73.90
69848;BME280;57143;55.940;37.496;2022-08-20T12:40:51;100369.19;;;19.55;73.46
69848;BME280;57143;55.940;37.496;2022-08-20T12:43:18;100374.31;;;19.69;74.20
69848;BME280;57143;55.940;37.496;2022-08-20T12:45:45;100382.03;;;19.72;68.26
69848;BME280;57143;55.940;37.496;2022-08-20T12:48:12;100371.06;;;19.77;67.82